createdAt,value
2023-11-19T00:00:29.870Z,100.00
2023-11-19T00:02:58.525Z,100.00
2023-11-19T00:05:28.658Z,100.00
2023-11-19T00:07:57.211Z,100.00
2023-11-19T00:10:26.254Z,100.00
2023-11-19T00:12:54.889Z,100.00
2023-11-19T00:15:25.271Z,100.00
2023-11-19T00:17:54.110Z,100.00
2023-11-19T00:20:23.766Z,100.00
2023-11-19T00:22:53.846Z,100.00
2023-11-19T00:25:23.853Z,100.00
2023-11-19T00:27:54.689Z,100.00
2023-11-19T00:30:23.629Z,100.00
2023-11-19T00:32:52.085Z,100.00
2023-11-19T00:35:20.993Z,100.00
2023-11-19T00:37:50.513Z,100.00
2023-11-19T00:40:22.956Z,100.00
2023-11-19T00:42:51.667Z,100.00
2023-11-19T00:45:20.567Z,100.00
2023-11-19T00:47:49.234Z,100.00
2023-11-19T00:50:18.581Z,100.00
2023-11-19T00:52:48.228Z,100.00
2023-11-19T00:55:17.165Z,100.00
2023-11-19T00:57:47.218Z,100.00
2023-11-19T01:00:20.379Z,100.00
2023-11-19T01:02:52.007Z,100.00
2023-11-19T01:05:23.813Z,100.00
2023-11-19T01:07:54.855Z,100.00
2023-11-19T01:10:23.671Z,100.00
2023-11-19T01:12:54.104Z,100.00
2023-11-19T01:15:23.800Z,100.00
2023-11-19T01:17:53.362Z,100.00
2023-11-19T01:20:22.760Z,100.00
2023-11-19T01:22:51.983Z,100.00
2023-11-19T01:25:20.928Z,100.00
2023-11-19T01:27:51.231Z,100.00
2023-11-19T01:30:21.395Z,100.00
2023-11-19T01:32:50.010Z,100.00
2023-11-19T01:35:18.541Z,100.00
2023-11-19T01:37:46.972Z,100.00
2023-11-19T01:40:16.567Z,100.00
2023-11-19T01:42:45.174Z,100.00
2023-11-19T01:45:29.925Z,100.00
2023-11-19T01:47:59.213Z,100.00
2023-11-19T01:50:28.448Z,100.00
2023-11-19T01:52:58.659Z,100.00
2023-11-19T01:55:29.271Z,100.00
2023-11-19T01:58:03.477Z,100.00
2023-11-19T02:00:35.751Z,100.00
2023-11-19T02:03:04.903Z,100.00
2023-11-19T02:05:34.566Z,100.00
2023-11-19T02:08:03.310Z,100.00
2023-11-19T02:10:32.978Z,100.00
2023-11-19T02:15:36.596Z,100.00
2023-11-19T02:18:25.224Z,100.00
2023-11-19T02:20:54.028Z,100.00
2023-11-19T02:23:23.662Z,100.00
2023-11-19T02:26:15.102Z,100.00
2023-11-19T02:28:45.594Z,100.00
2023-11-19T02:31:14.191Z,100.00
2023-11-19T02:33:42.785Z,100.00
2023-11-19T02:36:11.964Z,100.00
2023-11-19T02:38:40.637Z,100.00
2023-11-19T02:41:10.641Z,100.00
2023-11-19T02:43:39.974Z,100.00
2023-11-19T02:46:28.433Z,100.00
2023-11-19T02:48:56.976Z,100.00
2023-11-19T02:51:33.354Z,100.00
2023-11-19T02:54:01.732Z,100.00
2023-11-19T02:56:35.571Z,100.00
2023-11-19T02:59:09.823Z,100.00
2023-11-19T03:01:44.669Z,100.00
2023-11-19T03:04:18.077Z,100.00
2023-11-19T03:06:49.336Z,100.00
2023-11-19T03:09:18.043Z,100.00
2023-11-19T03:11:46.499Z,100.00
2023-11-19T03:14:15.011Z,100.00
2023-11-19T03:16:47.454Z,100.00
2023-11-19T03:19:25.683Z,100.00
2023-11-19T03:21:55.140Z,100.00
2023-11-19T03:24:23.604Z,100.00
2023-11-19T03:26:52.503Z,100.00
2023-11-19T03:29:21.058Z,100.00
2023-11-19T03:31:51.146Z,100.00
2023-11-19T03:34:20.049Z,100.00
2023-11-19T03:36:48.509Z,100.00
2023-11-19T03:39:16.915Z,100.00
2023-11-19T03:41:47.970Z,100.00
2023-11-19T03:44:16.491Z,100.00
2023-11-19T03:46:45.089Z,100.00
2023-11-19T03:49:15.234Z,100.00
2023-11-19T03:51:43.650Z,100.00
2023-11-19T03:54:12.716Z,100.00
2023-11-19T03:56:41.147Z,100.00
2023-11-19T03:59:10.898Z,100.00
2023-11-19T04:01:39.476Z,100.00
2023-11-19T04:04:08.108Z,100.00
2023-11-19T04:06:37.954Z,100.00
2023-11-19T04:09:06.901Z,100.00
2023-11-19T04:11:35.392Z,100.00
2023-11-19T04:14:03.884Z,100.00
2023-11-19T04:16:32.402Z,100.00
2023-11-19T04:19:00.871Z,100.00
2023-11-19T04:21:29.425Z,100.00
2023-11-19T04:23:59.277Z,100.00
2023-11-19T04:26:27.776Z,100.00
2023-11-19T04:28:56.627Z,100.00
2023-11-19T04:31:25.561Z,100.00
2023-11-19T04:33:55.828Z,100.00
2023-11-19T04:36:25.341Z,100.00
2023-11-19T04:38:53.756Z,100.00
2023-11-19T04:41:23.731Z,100.00
2023-11-19T04:43:52.181Z,100.00
2023-11-19T04:46:20.707Z,100.00
2023-11-19T04:48:49.591Z,100.00
2023-11-19T04:51:18.037Z,100.00
2023-11-19T04:53:46.539Z,100.00
2023-11-19T04:56:16.213Z,100.00
2023-11-19T04:58:45.936Z,100.00
2023-11-19T05:01:18.141Z,100.00
2023-11-19T05:03:47.637Z,100.00
2023-11-19T05:06:16.720Z,100.00
2023-11-19T05:08:45.161Z,100.00
2023-11-19T05:11:19.006Z,100.00
2023-11-19T05:13:49.070Z,100.00
2023-11-19T05:16:18.658Z,100.00
2023-11-19T05:18:47.204Z,100.00
2023-11-19T05:21:15.681Z,100.00
2023-11-19T05:23:44.087Z,100.00
2023-11-19T05:26:20.160Z,100.00
2023-11-19T05:28:50.286Z,100.00
2023-11-19T05:31:20.037Z,100.00
2023-11-19T05:33:48.640Z,100.00
2023-11-19T05:36:17.114Z,100.00
2023-11-19T05:38:45.786Z,100.00
2023-11-19T05:41:14.657Z,100.00
2023-11-19T05:43:43.235Z,100.00
2023-11-19T05:48:47.699Z,100.00
2023-11-19T05:51:17.228Z,100.00
2023-11-19T05:53:46.799Z,100.00
2023-11-19T05:56:16.833Z,100.00
2023-11-19T05:58:46.027Z,100.00
2023-11-19T06:01:16.303Z,100.00
2023-11-19T06:03:48.633Z,100.00
2023-11-19T06:06:17.317Z,100.00
2023-11-19T06:08:46.061Z,100.00
2023-11-19T06:11:19.209Z,100.00
2023-11-19T06:13:48.803Z,100.00
2023-11-19T06:16:21.679Z,100.00
2023-11-19T06:18:50.252Z,100.00
2023-11-19T06:21:18.726Z,100.00
2023-11-19T06:23:47.139Z,100.00
2023-11-19T06:26:15.975Z,100.00
2023-11-19T06:28:44.527Z,100.00
2023-11-19T06:31:13.064Z,100.00
2023-11-19T06:33:42.892Z,100.00
2023-11-19T06:36:11.627Z,100.00
2023-11-19T06:38:40.087Z,100.00
2023-11-19T06:41:10.552Z,100.00
2023-11-19T06:46:17.181Z,100.00
2023-11-19T06:48:47.270Z,100.00
2023-11-19T06:51:15.823Z,100.00
2023-11-19T06:53:45.316Z,100.00
2023-11-19T06:56:22.129Z,100.00
2023-11-19T06:58:50.699Z,100.00
2023-11-19T07:01:20.054Z,100.00
2023-11-19T07:03:50.805Z,100.00
2023-11-19T07:06:19.465Z,100.00
2023-11-19T07:08:48.050Z,100.00
2023-11-19T07:11:17.667Z,100.00
2023-11-19T07:13:47.418Z,100.00
2023-11-19T07:16:16.560Z,100.00
2023-11-19T07:18:45.917Z,100.00
2023-11-19T07:21:15.688Z,100.00
2023-11-19T07:23:44.722Z,100.00
2023-11-19T07:26:13.355Z,100.00
2023-11-19T07:28:49.197Z,100.00
2023-11-19T07:31:20.175Z,100.00
2023-11-19T07:33:50.325Z,100.00
2023-11-19T07:36:20.293Z,100.00
2023-11-19T07:38:48.732Z,100.00
2023-11-19T07:41:17.744Z,100.00
2023-11-19T07:43:47.567Z,100.00
2023-11-19T07:46:16.382Z,100.00
2023-11-19T07:48:44.908Z,100.00
2023-11-19T07:51:13.797Z,100.00
2023-11-19T07:53:44.086Z,100.00
2023-11-19T07:56:13.580Z,100.00
2023-11-19T07:58:42.998Z,100.00
2023-11-19T08:01:11.639Z,100.00
2023-11-19T08:03:41.029Z,100.00
2023-11-19T08:06:10.414Z,100.00
2023-11-19T08:08:39.288Z,100.00
2023-11-19T08:11:09.508Z,100.00
2023-11-19T08:13:38.136Z,100.00
2023-11-19T08:16:07.859Z,100.00
2023-11-19T08:18:36.305Z,100.00
2023-11-19T08:21:05.915Z,100.00
2023-11-19T08:23:34.591Z,100.00
2023-11-19T08:26:03.106Z,100.00
2023-11-19T08:28:35.231Z,100.00
2023-11-19T08:31:05.848Z,100.00
2023-11-19T08:33:34.550Z,97.63
2023-11-19T08:36:05.089Z,98.68
2023-11-19T08:38:33.637Z,99.56
2023-11-19T08:41:02.174Z,100.00
2023-11-19T08:43:32.703Z,100.00
2023-11-19T08:46:02.648Z,100.00
2023-11-19T08:48:31.398Z,99.33
2023-11-19T08:51:00.109Z,98.43
2023-11-19T08:53:28.716Z,97.57
2023-11-19T08:55:57.489Z,97.56
2023-11-19T08:58:26.161Z,97.37
2023-11-19T09:00:54.631Z,96.26
2023-11-19T09:03:24.533Z,90.02
2023-11-19T09:05:56.259Z,88.19
2023-11-19T09:08:25.065Z,89.76
2023-11-19T09:10:53.514Z,88.21
2023-11-19T09:13:22.240Z,89.07
2023-11-19T09:15:50.833Z,89.44
2023-11-19T09:18:19.847Z,91.77
2023-11-19T09:20:49.667Z,93.59
2023-11-19T09:23:18.450Z,95.57
2023-11-19T09:25:47.036Z,97.00
2023-11-19T09:28:15.602Z,97.54
2023-11-19T09:30:44.575Z,97.34
2023-11-19T09:33:13.258Z,97.88
2023-11-19T09:35:42.085Z,98.69
2023-11-19T09:38:13.734Z,98.77
2023-11-19T09:40:43.638Z,99.47
2023-11-19T09:43:12.907Z,99.80
2023-11-19T09:45:51.080Z,99.69
2023-11-19T09:48:20.682Z,99.46
2023-11-19T09:50:50.425Z,98.57
2023-11-19T09:53:21.377Z,94.32
2023-11-19T09:55:50.199Z,94.36
2023-11-19T09:58:19.229Z,94.98
2023-11-19T10:00:55.728Z,95.36
2023-11-19T10:03:29.200Z,96.11
2023-11-19T10:06:00.626Z,97.09
2023-11-19T10:08:30.576Z,97.46
2023-11-19T10:11:00.375Z,98.15
2023-11-19T10:13:31.500Z,98.76
2023-11-19T10:16:01.125Z,98.41
2023-11-19T10:18:29.625Z,98.03
2023-11-19T10:20:58.659Z,98.00
2023-11-19T10:23:27.647Z,98.53
2023-11-19T10:26:06.126Z,100.00
2023-11-19T10:28:41.674Z,100.00
2023-11-19T10:31:10.283Z,100.00
2023-11-19T10:33:38.787Z,100.00
2023-11-19T10:36:08.253Z,100.00
2023-11-19T10:38:36.781Z,100.00
2023-11-19T10:41:07.470Z,100.00
2023-11-19T10:43:45.782Z,100.00
2023-11-19T10:46:20.073Z,100.00
2023-11-19T10:48:48.910Z,100.00
2023-11-19T10:51:23.335Z,100.00
2023-11-19T10:53:52.666Z,99.67
2023-11-19T10:56:26.654Z,99.23
2023-11-19T10:58:56.644Z,99.12
2023-11-19T11:01:28.720Z,99.74
2023-11-19T11:03:59.351Z,100.00
2023-11-19T11:06:29.441Z,99.68
2023-11-19T11:08:59.954Z,98.19
2023-11-19T11:11:31.452Z,97.31
2023-11-19T11:14:03.553Z,98.42
2023-11-19T11:16:33.844Z,98.15
2023-11-19T11:19:03.037Z,96.25
2023-11-19T11:21:32.838Z,96.52
2023-11-19T11:24:25.267Z,95.81
2023-11-19T11:27:30.724Z,94.85
2023-11-19T11:30:11.952Z,96.09
2023-11-19T11:32:47.400Z,95.46
2023-11-19T11:35:30.320Z,94.27
2023-11-19T11:38:06.108Z,93.65
2023-11-19T11:40:35.007Z,92.91
2023-11-19T11:43:06.436Z,92.96
2023-11-19T11:45:39.189Z,91.75
2023-11-19T11:48:16.831Z,92.26
2023-11-19T11:50:51.544Z,90.83
2023-11-19T11:53:20.841Z,90.31
2023-11-19T11:56:01.010Z,87.68
2023-11-19T11:58:33.662Z,84.93
2023-11-19T12:01:06.855Z,84.29
2023-11-19T12:03:36.312Z,84.78
2023-11-19T12:06:05.362Z,85.80
2023-11-19T12:08:53.213Z,85.05
2023-11-19T12:11:28.264Z,75.99
2023-11-19T12:14:00.937Z,71.11
2023-11-19T12:16:43.960Z,73.95
2023-11-19T12:19:16.320Z,78.53
2023-11-19T12:21:44.765Z,80.58
2023-11-19T12:24:16.426Z,83.28
2023-11-19T12:26:46.209Z,83.89
2023-11-19T12:29:19.419Z,85.38
2023-11-19T12:34:43.752Z,84.52
2023-11-19T12:37:16.382Z,83.74
2023-11-19T12:39:47.541Z,84.65
2023-11-19T12:42:16.506Z,84.08
2023-11-19T12:44:58.177Z,84.37
2023-11-19T12:47:27.958Z,82.76
2023-11-19T12:50:00.728Z,83.01
2023-11-19T12:52:29.751Z,84.08
2023-11-19T12:54:59.183Z,84.29
2023-11-19T12:57:39.212Z,87.92
2023-11-19T13:00:23.120Z,94.13
2023-11-19T13:02:55.421Z,100.00
2023-11-19T13:05:27.380Z,100.00
2023-11-19T13:08:03.957Z,100.00
2023-11-19T13:10:33.471Z,100.00
2023-11-19T13:13:07.415Z,100.00
2023-11-19T13:15:38.117Z,100.00
2023-11-19T13:18:08.030Z,100.00
2023-11-19T13:20:37.125Z,100.00
2023-11-19T13:23:07.958Z,100.00
2023-11-19T13:25:36.756Z,100.00
2023-11-19T13:28:07.208Z,100.00
2023-11-19T13:30:37.470Z,100.00
2023-11-19T13:33:06.381Z,100.00
2023-11-19T13:35:35.215Z,100.00
2023-11-19T13:38:03.913Z,100.00
2023-11-19T13:40:32.429Z,100.00
2023-11-19T13:43:01.334Z,100.00
2023-11-19T13:45:29.922Z,100.00
2023-11-19T13:48:00.041Z,100.00
2023-11-19T13:50:29.911Z,100.00
2023-11-19T13:52:58.698Z,100.00
2023-11-19T13:55:27.607Z,100.00
2023-11-19T13:57:56.259Z,100.00
2023-11-19T14:00:25.618Z,100.00
2023-11-19T14:02:57.105Z,100.00
2023-11-19T14:08:08.629Z,100.00
2023-11-19T14:10:41.550Z,100.00
2023-11-19T14:13:10.340Z,100.00
2023-11-19T14:15:38.995Z,100.00
2023-11-19T14:18:08.213Z,100.00
2023-11-19T14:20:38.965Z,100.00
2023-11-19T14:23:10.312Z,100.00
2023-11-19T14:25:39.045Z,100.00
2023-11-19T14:28:08.639Z,100.00
2023-11-19T14:30:37.668Z,100.00
2023-11-19T14:33:08.534Z,100.00
2023-11-19T14:35:38.734Z,100.00
2023-11-19T14:38:10.932Z,100.00
2023-11-19T14:43:11.946Z,100.00
2023-11-19T14:45:45.634Z,100.00
2023-11-19T14:48:19.756Z,100.00
2023-11-19T14:50:49.747Z,100.00
2023-11-19T14:53:18.379Z,100.00
2023-11-19T14:55:47.217Z,100.00
2023-11-19T14:58:17.516Z,100.00
2023-11-19T15:00:51.954Z,100.00
2023-11-19T15:03:23.580Z,100.00
2023-11-19T15:05:54.043Z,100.00
2023-11-19T15:08:22.556Z,100.00
2023-11-19T15:10:51.174Z,100.00
2023-11-19T15:13:19.725Z,100.00
2023-11-19T15:15:51.483Z,100.00
2023-11-19T15:18:20.199Z,100.00
2023-11-19T15:20:49.396Z,100.00
2023-11-19T15:23:20.680Z,100.00
2023-11-19T15:25:50.136Z,100.00
2023-11-19T15:28:20.136Z,100.00
2023-11-19T15:30:48.912Z,100.00
2023-11-19T15:33:20.576Z,100.00
2023-11-19T15:35:49.184Z,100.00
2023-11-19T15:38:20.579Z,100.00
2023-11-19T15:40:49.145Z,100.00
2023-11-19T15:43:17.618Z,100.00
2023-11-19T15:45:46.129Z,100.00
2023-11-19T15:48:15.736Z,100.00
2023-11-19T15:50:45.754Z,100.00
2023-11-19T15:53:14.607Z,100.00
2023-11-19T15:55:45.275Z,100.00
2023-11-19T15:58:14.392Z,100.00
2023-11-19T16:00:47.233Z,100.00
2023-11-19T16:03:16.987Z,100.00
2023-11-19T16:05:47.053Z,100.00
2023-11-19T16:08:20.004Z,100.00
2023-11-19T16:10:53.047Z,100.00
2023-11-19T16:13:22.918Z,100.00
2023-11-19T16:15:54.700Z,100.00
2023-11-19T16:18:23.322Z,100.00
2023-11-19T16:21:20.366Z,100.00
2023-11-19T16:23:51.052Z,100.00
2023-11-19T16:26:21.371Z,100.00
2023-11-19T16:28:50.529Z,100.00
2023-11-19T16:31:19.109Z,100.00
2023-11-19T16:33:51.287Z,100.00
2023-11-19T16:36:21.994Z,100.00
2023-11-19T16:38:51.017Z,100.00
2023-11-19T16:41:33.418Z,100.00
2023-11-19T16:44:09.842Z,100.00
2023-11-19T16:46:39.246Z,100.00
2023-11-19T16:49:08.463Z,100.00
2023-11-19T16:51:37.725Z,100.00
2023-11-19T16:54:06.609Z,100.00
2023-11-19T16:56:36.633Z,100.00
2023-11-19T16:59:05.138Z,100.00
2023-11-19T17:01:33.578Z,100.00
2023-11-19T17:04:02.099Z,100.00
2023-11-19T17:06:30.578Z,100.00
2023-11-19T17:08:59.150Z,100.00
2023-11-19T17:11:28.237Z,100.00
2023-11-19T17:13:58.402Z,100.00
2023-11-19T17:16:27.461Z,100.00
2023-11-19T17:18:55.948Z,100.00
2023-11-19T17:21:26.290Z,100.00
2023-11-19T17:23:54.900Z,100.00
2023-11-19T17:26:23.473Z,100.00
2023-11-19T17:28:52.067Z,100.00
2023-11-19T17:31:22.053Z,100.00
2023-11-19T17:33:50.711Z,100.00
2023-11-19T17:36:35.477Z,100.00
2023-11-19T17:39:05.062Z,100.00
2023-11-19T17:41:33.546Z,100.00
2023-11-19T17:44:02.417Z,100.00
2023-11-19T17:46:32.530Z,100.00
2023-11-19T17:49:01.194Z,100.00
2023-11-19T17:51:29.983Z,100.00
2023-11-19T17:53:58.724Z,100.00
2023-11-19T17:56:27.428Z,100.00
2023-11-19T17:58:56.134Z,100.00
2023-11-19T18:01:24.797Z,100.00
2023-11-19T18:03:55.262Z,100.00
2023-11-19T18:06:24.801Z,100.00
2023-11-19T18:08:53.621Z,100.00
2023-11-19T18:11:23.232Z,100.00
2023-11-19T18:13:51.993Z,100.00
2023-11-19T18:16:21.049Z,100.00
2023-11-19T18:18:49.940Z,100.00
2023-11-19T18:21:20.151Z,100.00
2023-11-19T18:23:48.929Z,100.00
2023-11-19T18:26:17.658Z,100.00
2023-11-19T18:28:48.016Z,100.00
2023-11-19T18:31:17.001Z,100.00
2023-11-19T18:33:45.849Z,100.00
2023-11-19T18:36:15.991Z,100.00
2023-11-19T18:38:46.137Z,100.00
2023-11-19T18:41:15.131Z,100.00
2023-11-19T18:43:43.862Z,100.00
2023-11-19T18:46:14.367Z,100.00
2023-11-19T18:48:43.067Z,100.00
2023-11-19T18:51:15.107Z,100.00
2023-11-19T18:53:46.117Z,100.00
2023-11-19T18:56:15.786Z,100.00
2023-11-19T18:58:45.425Z,100.00
2023-11-19T19:01:16.740Z,100.00
2023-11-19T19:03:45.963Z,100.00
2023-11-19T19:06:14.562Z,100.00
2023-11-19T19:08:44.953Z,100.00
2023-11-19T19:11:15.162Z,100.00
2023-11-19T19:13:44.656Z,100.00
2023-11-19T19:16:13.643Z,100.00
2023-11-19T19:18:43.024Z,100.00
2023-11-19T19:21:12.221Z,100.00
2023-11-19T19:23:41.121Z,100.00
2023-11-19T19:26:10.152Z,100.00
2023-11-19T19:28:40.264Z,100.00
2023-11-19T19:31:09.193Z,100.00
2023-11-19T19:33:37.805Z,100.00
2023-11-19T19:36:10.565Z,100.00
2023-11-19T19:38:39.486Z,100.00
2023-11-19T19:41:08.133Z,100.00
2023-11-19T19:43:37.567Z,100.00
2023-11-19T19:46:10.250Z,100.00
2023-11-19T19:48:39.284Z,100.00
2023-11-19T19:51:08.724Z,100.00
2023-11-19T19:53:38.630Z,100.00
2023-11-19T19:56:09.885Z,100.00
2023-11-19T19:58:40.625Z,100.00
2023-11-19T20:01:11.654Z,100.00
2023-11-19T20:03:41.071Z,100.00
2023-11-19T20:06:12.533Z,100.00
2023-11-19T20:08:41.942Z,100.00
2023-11-19T20:11:10.839Z,100.00
2023-11-19T20:13:39.601Z,100.00
2023-11-19T20:16:11.214Z,100.00
2023-11-19T20:18:40.161Z,100.00
2023-11-19T20:21:09.899Z,100.00
2023-11-19T20:23:39.097Z,100.00
2023-11-19T20:26:08.163Z,100.00
2023-11-19T20:28:37.198Z,100.00
2023-11-19T20:31:05.968Z,100.00
2023-11-19T20:33:36.554Z,100.00
2023-11-19T20:36:06.561Z,100.00
2023-11-19T20:38:35.520Z,100.00
2023-11-19T20:41:04.653Z,100.00
2023-11-19T20:43:33.613Z,100.00
2023-11-19T20:46:04.485Z,100.00
2023-11-19T20:48:33.411Z,100.00
2023-11-19T20:51:03.831Z,100.00
2023-11-19T20:53:32.574Z,100.00
2023-11-19T20:56:01.887Z,100.00
2023-11-19T20:58:31.113Z,100.00
2023-11-19T21:00:59.701Z,100.00
2023-11-19T21:03:29.302Z,100.00
2023-11-19T21:05:58.991Z,100.00
2023-11-19T21:08:30.698Z,100.00
2023-11-19T21:11:00.028Z,100.00
2023-11-19T21:13:30.396Z,100.00
2023-11-19T21:16:03.429Z,100.00
2023-11-19T21:18:32.539Z,100.00
2023-11-19T21:21:03.807Z,100.00
2023-11-19T21:23:34.215Z,100.00
2023-11-19T21:26:03.217Z,100.00
2023-11-19T21:28:34.231Z,100.00
2023-11-19T21:31:02.998Z,100.00
2023-11-19T21:33:32.017Z,100.00
2023-11-19T21:36:01.492Z,100.00
2023-11-19T21:38:30.417Z,100.00
2023-11-19T21:41:02.202Z,100.00
2023-11-19T21:43:30.850Z,100.00
2023-11-19T21:46:00.217Z,100.00
2023-11-19T21:48:29.069Z,100.00
2023-11-19T21:51:02.498Z,100.00
2023-11-19T21:53:31.672Z,100.00
2023-11-19T21:58:33.385Z,100.00
2023-11-19T22:01:06.170Z,100.00
2023-11-19T22:03:37.928Z,100.00
2023-11-19T22:06:06.951Z,100.00
2023-11-19T22:08:35.769Z,100.00
2023-11-19T22:11:05.721Z,100.00
2023-11-19T22:13:36.261Z,100.00
2023-11-19T22:16:05.768Z,100.00
2023-11-19T22:18:34.627Z,100.00
2023-11-19T22:21:03.813Z,100.00
2023-11-19T22:23:32.650Z,100.00
2023-11-19T22:26:02.165Z,100.00
2023-11-19T22:28:34.366Z,100.00
2023-11-19T22:31:03.444Z,100.00
2023-11-19T22:33:45.154Z,100.00
2023-11-19T22:36:14.221Z,100.00
2023-11-19T22:38:43.111Z,100.00
2023-11-19T22:41:12.172Z,100.00
2023-11-19T22:43:42.606Z,100.00
2023-11-19T22:46:11.326Z,100.00
2023-11-19T22:48:40.208Z,100.00
2023-11-19T22:51:09.565Z,100.00
2023-11-19T22:53:38.358Z,100.00
2023-11-19T22:56:08.532Z,100.00
2023-11-19T22:58:37.280Z,100.00
2023-11-19T23:01:08.123Z,100.00
2023-11-19T23:03:36.982Z,100.00
2023-11-19T23:06:07.652Z,100.00
2023-11-19T23:08:37.166Z,100.00
2023-11-19T23:11:06.848Z,100.00
2023-11-19T23:13:35.691Z,100.00
2023-11-19T23:16:04.901Z,100.00
2023-11-19T23:18:35.040Z,100.00
2023-11-19T23:21:04.824Z,100.00
2023-11-19T23:23:34.190Z,100.00
2023-11-19T23:26:02.701Z,100.00
2023-11-19T23:28:31.250Z,100.00
2023-11-19T23:30:59.753Z,100.00
2023-11-19T23:33:28.271Z,100.00
2023-11-19T23:35:58.996Z,100.00
2023-11-19T23:38:27.459Z,100.00
2023-11-19T23:40:56.048Z,100.00
2023-11-19T23:43:24.490Z,100.00
2023-11-19T23:45:53.001Z,100.00
2023-11-19T23:48:21.445Z,100.00
2023-11-19T23:53:22.773Z,100.00
2023-11-19T23:55:51.235Z,100.00
2023-11-19T23:58:19.766Z,100.00
